Flight Track Log - Related Links

Times and Time Zones

All times are in EDT time to prevent confusion due to time zone crossing. See the N56SB flight status page for this flight to view local times or setup timezone preferences in your user account.

Time Position Orientation Groundspeed Altitude Reporting Facility
EDT Latitude Longitude Course Direction KTS MPH feet Rate Location/Type
Fri 05:24:05 PM 40.8333 -74.0833 252° West 157 181 1,200  Level New York TRACON
Fri 05:25:04 PM 40.8167 -74.1500 252° West 191 220 1,600 1,714 Climbing New York TRACON
Fri 05:26:04 PM 40.8167 -74.2167 270° West 187 215 4,600 2,777 Climbing New York TRACON
Fri 05:27:05 PM 40.8167 -74.2833 270° West 197 227 7,200 2,500 Climbing New York TRACON
Fri 05:28:04 PM 40.8000 -74.3500 252° West 210 242 9,600 2,232 Climbing New York TRACON
Fri 05:30:32 PM 40.7331 -74.5283 244° Southwest 212 244 14,900 2,155 Climbing New York Center
Fri 05:31:30 PM 40.7078 -74.6036 246° West 223 257 17,000 1,881 Climbing New York Center
Fri 05:32:30 PM 40.6803 -74.6814 245° Southwest 235 270 18,600 1,736 Climbing New York Center
Fri 05:33:31 PM 40.6547 -74.7594 247° West 230 265 20,500 1,835 Climbing New York Center
Fri 05:34:31 PM 40.6269 -74.8425 246° West 235 270 22,300 1,672 Climbing New York Center
Fri 05:35:33 PM 40.5969 -74.9228 244° Southwest 241 277 23,900 1,664 Climbing New York Center
Fri 05:36:30 PM 40.5689 -75.0083 247° West 251 289 25,600 1,538 Climbing New York Center
Fri 05:37:30 PM 40.5222 -75.0903 233° Southwest 256 295 26,900 1,438 Climbing New York Center
Fri 05:38:31 PM 40.4733 -75.1717 232° Southwest 277 319 28,500 1,388 Climbing New York Center
Fri 05:39:31 PM 40.4247 -75.2478 230° Southwest 283 326 29,700 1,311 Climbing New York Center
Fri 05:40:30 PM 40.3675 -75.3256 226° Southwest 295 339 31,100 1,311 Climbing New York Center
Fri 05:41:30 PM 40.3042 -75.3950 220° Southwest 295 339 32,300 1,289 Climbing New York Center
Fri 05:42:31 PM 40.2411 -75.4642 220° Southwest 301 346 33,700 1,268 Climbing New York Center
Fri 05:43:33 PM 40.1797 -75.5361 222° Southwest 301 346 34,900 650 Climbing New York Center
Fri 05:44:31 PM 40.1225 -75.6136 226° Southwest 306 352 35,000 51 Climbing New York Center
Fri 05:45:31 PM 40.0644 -75.7072 231° Southwest 326 375 35,000  Level New York Center
Fri 05:46:30 PM 40.0078 -75.8144 235° Southwest 346 398 35,000 50 Level New York Center
Fri 05:47:31 PM 39.9489 -75.9239 235° Southwest 366 421 35,100 295 Climbing New York Center
Fri 05:48:32 PM 39.8878 -76.0331 234° Southwest 371 427 35,600 446 Climbing New York Center
Fri 05:49:32 PM 39.8350 -76.1400 237° Southwest 371 427 36,000 203 Climbing New York Center
Fri 05:50:30 PM 39.7736 -76.2486 234° Southwest 371 427 36,000  Level New York Center
Fri 05:51:30 PM 39.7144 -76.3519 233° Southwest 371 427 36,000  Level New York Center
Fri 05:52:18 PM 39.6647 -76.4353 232° Southwest 370 426 36,000  Level Washington Center
Fri 05:53:19 PM 39.5994 -76.5369 230° Southwest 364 419 36,000  Level Washington Center
Fri 05:54:20 PM 39.5319 -76.6356 228° Southwest 369 425 36,000  Level Washington Center
Fri 05:55:18 PM 39.4686 -76.7367 231° Southwest 369 425 36,000  Level Washington Center
Fri 05:56:19 PM 39.4050 -76.8353 230° Southwest 369 425 36,000  Level Washington Center
Fri 05:57:19 PM 39.3436 -76.9361 232° Southwest 369 425 36,000  Level Washington Center
Fri 05:58:19 PM 39.2800 -77.0342 230° Southwest 369 425 36,000  Level Washington Center
Fri 05:59:20 PM 39.2161 -77.1319 230° Southwest 369 425 36,000  Level Washington Center
Fri 06:00:18 PM 39.1544 -77.2269 230° Southwest 369 425 36,000  Level Washington Center
Fri 06:01:19 PM 39.0886 -77.3272 230° Southwest 369 425 36,000  Level Washington Center
Fri 06:02:19 PM 39.0267 -77.4244 231° Southwest 369 425 36,000  Level Washington Center
Fri 06:03:19 PM 38.9625 -77.5217 230° Southwest 369 425 36,000  Level Washington Center
Fri 06:04:19 PM 38.8983 -77.6189 230° Southwest 374 430 36,000  Level Washington Center
Fri 06:05:19 PM 38.8342 -77.7183 230° Southwest 374 430 36,000  Level Washington Center
Fri 06:06:20 PM 38.7764 -77.8072 230° Southwest 374 430 36,000  Level Washington Center
Fri 06:07:18 PM 38.7097 -77.9061 229° Southwest 374 430 36,000  Level Washington Center
Fri 06:08:18 PM 38.6475 -78.0028 231° Southwest 368 423 36,000  Level Washington Center
Fri 06:09:19 PM 38.5828 -78.0989 229° Southwest 363 418 36,000  Level Washington Center
Fri 06:10:19 PM 38.5206 -78.1922 230° Southwest 363 418 36,000  Level Washington Center
Fri 06:11:20 PM 38.4558 -78.2908 230° Southwest 358 412 36,000  Level Washington Center
Fri 06:12:20 PM 38.3911 -78.3864 229° Southwest 358 412 36,000  Level Washington Center
Fri 06:13:17 PM 38.3261 -78.4844 230° Southwest 363 418 36,000  Level Washington Center
Fri 06:14:18 PM 38.2653 -78.5800 231° Southwest 369 425 36,000  Level Washington Center
Fri 06:15:19 PM 38.2003 -78.6778 230° Southwest 369 425 36,000  Level Washington Center
Fri 06:16:20 PM 38.1353 -78.7703 228° Southwest 369 425 36,000  Level Washington Center
Fri 06:17:17 PM 38.0614 -78.8806 230° Southwest 374 430 36,000  Level Washington Center
Fri 06:18:18 PM 37.9942 -78.9778 229° Southwest 374 430 36,000  Level Washington Center
Fri 06:19:19 PM 37.9267 -79.0747 229° Southwest 374 430 36,000  Level Washington Center
Fri 06:20:20 PM 37.8592 -79.1717 229° Southwest 374 430 36,000  Level Washington Center
Fri 06:21:18 PM 37.7961 -79.2578 227° Southwest 374 430 36,000  Level Washington Center
Fri 06:22:20 PM 37.7283 -79.3544 228° Southwest 374 430 36,000  Level Washington Center
Fri 06:23:20 PM 37.6544 -79.4531 227° Southwest 379 436 36,000  Level Washington Center
Fri 06:24:18 PM 37.5778 -79.5592 228° Southwest 379 436 36,000  Level Washington Center
Fri 06:25:19 PM 37.5058 -79.6575 227° Southwest 379 436 36,000  Level Washington Center
Fri 06:26:20 PM 37.4489 -79.7356 227° Southwest 379 436 36,000  Level Washington Center
Fri 06:27:20 PM 37.3678 -79.8461 227° Southwest 387 445 36,000  Level Washington Center
Fri 06:28:18 PM 37.2889 -79.9542 227° Southwest 387 445 36,000  Level Washington Center
Fri 06:29:18 PM 37.2164 -80.0492 226° Southwest 387 445 36,000  Level Washington Center
Fri 06:30:30 PM 37.1294 -80.1625 226° Southwest 384 442 36,000  Level Atlanta Center
Fri 06:31:30 PM 37.0653 -80.2489 227° Southwest 378 435 36,000  Level Atlanta Center
Fri 06:32:30 PM 36.9953 -80.3458 228° Southwest 383 441 36,000  Level Atlanta Center
Fri 06:33:30 PM 36.9250 -80.4375 226° Southwest 378 435 36,000  Level Atlanta Center
Fri 06:34:30 PM 36.8550 -80.5342 228° Southwest 378 435 36,000  Level Atlanta Center
Fri 06:35:30 PM 36.7764 -80.6361 226° Southwest 378 435 36,000  Level Atlanta Center
Fri 06:36:30 PM 36.7078 -80.7217 225° Southwest 373 429 36,000  Level Atlanta Center
Fri 06:37:30 PM 36.6417 -80.8178 229° Southwest 373 429 36,000  Level Atlanta Center
Fri 06:38:30 PM 36.5692 -80.9136 227° Southwest 373 429 36,000  Level Atlanta Center
Fri 06:39:30 PM 36.5064 -80.9961 227° Southwest 373 429 36,000  Level Atlanta Center
Fri 06:40:30 PM 36.4358 -81.0917 227° Southwest 379 436 36,000  Level Atlanta Center
Fri 06:41:30 PM 36.3733 -81.1869 231° Southwest 376 433 36,000  Level Atlanta Center
Fri 06:42:30 PM 36.3089 -81.2869 231° Southwest 370 426 36,000  Level Atlanta Center
Fri 06:43:30 PM 36.2464 -81.3844 232° Southwest 365 420 36,000  Level Atlanta Center
Fri 06:44:30 PM 36.1819 -81.4844 231° Southwest 365 420 36,000 -50 Level Atlanta Center
Fri 06:45:30 PM 36.1172 -81.5814 230° Southwest 365 420 35,900 -300 Descending Atlanta Center
Fri 06:46:30 PM 36.0522 -81.6836 232° Southwest 375 432 35,400 -450 Descending Atlanta Center
Fri 06:47:30 PM 35.9853 -81.7831 230° Southwest 375 432 35,000 -200 Descending Atlanta Center
Fri 06:48:30 PM 35.9206 -81.8847 232° Southwest 380 437 35,000  Level Atlanta Center
Fri 06:49:30 PM 35.8472 -81.9919 230° Southwest 380 437 35,000  Level Atlanta Center
Fri 06:50:30 PM 35.7819 -82.0908 231° Southwest 380 437 35,000  Level Atlanta Center
Fri 06:51:30 PM 35.7189 -82.1844 230° Southwest 380 437 35,000  Level Atlanta Center
Fri 06:52:30 PM 35.6536 -82.2831 231° Southwest 374 430 35,000  Level Atlanta Center
Fri 06:53:30 PM 35.5903 -82.3761 230° Southwest 369 425 35,000  Level Atlanta Center
Fri 06:54:30 PM 35.5267 -82.4744 232° Southwest 369 425 35,000  Level Atlanta Center
Fri 06:55:30 PM 35.4611 -82.5675 229° Southwest 369 425 35,000 -50 Level Atlanta Center
Fri 06:56:30 PM 35.4058 -82.6450 229° Southwest 358 412 34,900 -300 Descending Atlanta Center
Fri 06:57:30 PM 35.3400 -82.7453 231° Southwest 358 412 34,400 -450 Descending Atlanta Center
Fri 06:58:30 PM 35.2722 -82.8406 229° Southwest 363 418 34,000 -1,050 Descending Atlanta Center
Fri 06:59:30 PM 35.2003 -82.9458 230° Southwest 368 423 32,300 -1,500 Descending Atlanta Center
Fri 07:00:30 PM 35.1383 -83.0381 231° Southwest 373 429 31,000 -650 Descending Atlanta Center
Fri 07:01:30 PM 35.0722 -83.1328 230° Southwest 373 429 31,000 -650 Level Atlanta Center
Fri 07:02:30 PM 35.0061 -83.2297 230° Southwest 373 429 29,700 -1,900 Descending Atlanta Center
Fri 07:03:30 PM 34.9339 -83.3369 231° Southwest 391 450 27,200 -2,750 Descending Atlanta Center
Fri 07:04:30 PM 34.8633 -83.4364 229° Southwest 401 461 24,200 -3,500 Descending Atlanta Center
Fri 07:05:30 PM 34.7969 -83.5328 230° Southwest 395 455 20,200 -3,550 Descending Atlanta Center
Fri 07:06:30 PM 34.7808 -83.6467 260° West 312 359 17,100 -1,600 Descending Atlanta Center
Fri 07:07:30 PM 34.7811 -83.7453 270° West 307 353 17,000 -50 Descending Atlanta Center
Fri 07:08:30 PM 34.7856 -83.8492 273° West 308 354 17,000  Level Atlanta Center
Fri 07:09:30 PM 34.7750 -83.9528 263° West 316 364 17,000  Level Atlanta Center
Fri 07:10:30 PM 34.7458 -84.0514 250° West 316 364 17,000 -350 Level Atlanta Center
Fri 07:11:30 PM 34.7000 -84.1397 238° Southwest 311 358 16,300 -1,100 Descending Atlanta Center
Fri 07:12:30 PM 34.6122 -84.1322 176° South 263 303 14,800 -1,850 Descending Atlanta Center
Fri 07:13:30 PM 34.5247 -84.1144 170° South 299 344 12,600 -1,950 Descending Atlanta Center
Fri 07:14:30 PM 34.4497 -84.0992 170° South 313 360 10,900 -1,650 Descending Atlanta Center
Fri 07:15:30 PM 34.3744 -84.0867 172° South 301 346 9,300 -1,450 Descending Atlanta Center
Fri 07:16:30 PM 34.3139 -84.1444 218° Southwest 265 305 8,000 -800 Descending Atlanta Center
Fri 07:17:30 PM 34.2722 -84.2047 230° Southwest 246 283 7,700 -900 Descending Atlanta Center
Fri 07:18:30 PM 34.2281 -84.2750 233° Southwest 256 295 6,200 -1,500 Descending Atlanta Center
Fri 07:19:30 PM 34.1822 -84.3450 232° Southwest 268 308 4,700 -1,600 Descending Atlanta Center
Fri 07:20:30 PM 34.1403 -84.4078 231° Southwest 262 302 3,000 -850 Descending Atlanta Center
Fri 07:21:30 PM 34.0900 -84.4350 204° Southwest 211 243 3,000  Level Atlanta Center
Fri 07:22:30 PM 34.0525 -84.4475 195° South 162 186 3,000  Level Atlanta Center
Fri 07:23:30 PM 34.0211 -84.4622 201° Southwest 132 152 3,000 -300 Level Atlanta Center
Fri 07:24:30 PM 34.0167 -84.5000 262° West 111 128 2,400 -600 Descending Atlanta Center
Fri 07:27:00 PM 34.0000 -84.5833 256° West  Level FlightAware Approximate
Fri 07:34:00 PM 34.0132 -84.5971 256° West  Level Estimated

Login

Don't have an account? Register now (free) for customized features, flight alerts, and more!